sensor_id;sensor_type;location;lat;lon;timestamp;pressure;altitude;pressure_sealevel;temperature;humidity
75594;BME280;64176;49.156;7.810;2022-10-19T00:00:02;100143.75;;;13.30;92.42
75594;BME280;64176;49.156;7.810;2022-10-19T00:02:49;100150.63;;;13.25;91.97
75594;BME280;64176;49.156;7.810;2022-10-19T00:05:33;100160.09;;;13.20;92.47
75594;BME280;64176;49.156;7.810;2022-10-19T00:08:17;100163.59;;;13.27;92.13
75594;BME280;64176;49.156;7.810;2022-10-19T00:11:01;100148.94;;;13.32;91.72
75594;BME280;64176;49.156;7.810;2022-10-19T00:13:47;100153.78;;;12.98;92.20
75594;BME280;64176;49.156;7.810;2022-10-19T00:16:34;100150.34;;;12.99;92.68
75594;BME280;64176;49.156;7.810;2022-10-19T00:19:23;100154.78;;;13.11;92.36
75594;BME280;64176;49.156;7.810;2022-10-19T00:22:07;100150.38;;;13.05;92.35
75594;BME280;64176;49.156;7.810;2022-10-19T00:24:51;100158.22;;;13.10;92.33
75594;BME280;64176;49.156;7.810;2022-10-19T00:27:37;100158.13;;;12.99;92.32
75594;BME280;64176;49.156;7.810;2022-10-19T00:30:21;100152.03;;;12.97;92.46
75594;BME280;64176;49.156;7.810;2022-10-19T00:33:05;100150.31;;;12.98;92.60
75594;BME280;64176;49.156;7.810;2022-10-19T00:35:50;100146.00;;;12.98;92.83
75594;BME280;64176;49.156;7.810;2022-10-19T00:38:35;100155.38;;;12.86;92.77
75594;BME280;64176;49.156;7.810;2022-10-19T00:41:21;100157.06;;;12.81;93.14
75594;BME280;64176;49.156;7.810;2022-10-19T00:47:00;100151.41;;;13.18;92.00
75594;BME280;64176;49.156;7.810;2022-10-19T00:49:46;100144.53;;;13.22;91.32
75594;BME280;64176;49.156;7.810;2022-10-19T00:52:30;100139.94;;;12.98;91.75
75594;BME280;64176;49.156;7.810;2022-10-19T00:55:15;100145.19;;;13.02;92.05
75594;BME280;64176;49.156;7.810;2022-10-19T00:58:03;100149.53;;;13.06;91.48
75594;BME280;64176;49.156;7.810;2022-10-19T01:00:47;100141.00;;;13.15;91.72
75594;BME280;64176;49.156;7.810;2022-10-19T01:03:32;100134.22;;;13.29;90.80
75594;BME280;64176;49.156;7.810;2022-10-19T01:06:17;100136.84;;;13.32;90.66
75594;BME280;64176;49.156;7.810;2022-10-19T01:09:02;100143.59;;;13.17;90.75
75594;BME280;64176;49.156;7.810;2022-10-19T01:15:26;100134.06;;;13.16;91.42
75594;BME280;64176;49.156;7.810;2022-10-19T01:18:21;100123.72;;;13.17;90.70
75594;BME280;64176;49.156;7.810;2022-10-19T01:24:25;100132.44;;;13.22;91.19
75594;BME280;64176;49.156;7.810;2022-10-19T01:27:26;100122.72;;;13.06;91.56
75594;BME280;64176;49.156;7.810;2022-10-19T01:36:40;100116.88;;;13.28;91.10
75594;BME280;64176;49.156;7.810;2022-10-19T01:39:55;100112.50;;;13.21;91.10
75594;BME280;64176;49.156;7.810;2022-10-19T01:42:47;100117.56;;;13.10;91.28
75594;BME280;64176;49.156;7.810;2022-10-19T01:48:53;100114.25;;;13.21;91.08
75594;BME280;64176;49.156;7.810;2022-10-19T01:51:43;100107.28;;;13.18;91.37
75594;BME280;64176;49.156;7.810;2022-10-19T01:54:34;100109.00;;;13.18;91.25
75594;BME280;64176;49.156;7.810;2022-10-19T01:57:25;100108.13;;;13.16;91.41
75594;BME280;64176;49.156;7.810;2022-10-19T02:00:12;100107.22;;;13.12;90.95
75594;BME280;64176;49.156;7.810;2022-10-19T02:03:02;100103.72;;;13.08;91.24
75594;BME280;64176;49.156;7.810;2022-10-19T02:05:48;100096.78;;;13.09;90.80
75594;BME280;64176;49.156;7.810;2022-10-19T02:08:39;100089.81;;;13.03;91.55
75594;BME280;64176;49.156;7.810;2022-10-19T02:11:25;100095.78;;;12.92;91.44
75594;BME280;64176;49.156;7.810;2022-10-19T02:14:12;100100.00;;;12.81;92.35
75594;BME280;64176;49.156;7.810;2022-10-19T02:17:17;100093.75;;;12.62;92.44
75594;BME280;64176;49.156;7.810;2022-10-19T02:20:02;100093.75;;;12.62;93.14
75594;BME280;64176;49.156;7.810;2022-10-19T02:22:49;100084.38;;;12.74;92.96
75594;BME280;64176;49.156;7.810;2022-10-19T02:25:34;100079.25;;;12.84;92.64
75594;BME280;64176;49.156;7.810;2022-10-19T02:28:19;100075.75;;;12.77;92.67
75594;BME280;64176;49.156;7.810;2022-10-19T02:31:06;100061.09;;;12.82;92.30
75594;BME280;64176;49.156;7.810;2022-10-19T02:33:51;100069.63;;;12.69;92.90
75594;BME280;64176;49.156;7.810;2022-10-19T02:36:35;100061.78;;;12.64;92.71
75594;BME280;64176;49.156;7.810;2022-10-19T02:39:20;100068.59;;;12.53;93.27
75594;BME280;64176;49.156;7.810;2022-10-19T02:42:21;100062.41;;;12.40;93.72
75594;BME280;64176;49.156;7.810;2022-10-19T02:45:29;100061.63;;;12.48;93.56
75594;BME280;64176;49.156;7.810;2022-10-19T02:48:20;100056.47;;;12.52;93.62
75594;BME280;64176;49.156;7.810;2022-10-19T02:51:35;100040.81;;;12.42;93.15
75594;BME280;64176;49.156;7.810;2022-10-19T02:54:23;100048.59;;;12.42;92.96
75594;BME280;64176;49.156;7.810;2022-10-19T02:57:22;100042.47;;;12.33;93.27
75594;BME280;64176;49.156;7.810;2022-10-19T03:00:08;100045.97;;;12.37;93.99
75594;BME280;64176;49.156;7.810;2022-10-19T03:02:55;100047.78;;;12.46;93.53
75594;BME280;64176;49.156;7.810;2022-10-19T03:05:39;100052.03;;;12.40;93.10
75594;BME280;64176;49.156;7.810;2022-10-19T03:08:22;100048.53;;;12.35;93.31
75594;BME280;64176;49.156;7.810;2022-10-19T03:11:06;100039.91;;;12.36;93.45
75594;BME280;64176;49.156;7.810;2022-10-19T03:13:53;100043.34;;;12.35;93.14
75594;BME280;64176;49.156;7.810;2022-10-19T03:16:37;100038.16;;;12.35;93.63
75594;BME280;64176;49.156;7.810;2022-10-19T03:19:21;100033.84;;;12.34;93.77
75594;BME280;64176;49.156;7.810;2022-10-19T03:22:05;100025.13;;;12.31;93.53
75594;BME280;64176;49.156;7.810;2022-10-19T03:24:49;100033.56;;;12.10;92.98
75594;BME280;64176;49.156;7.810;2022-10-19T03:27:34;100026.78;;;12.21;92.79
75594;BME280;64176;49.156;7.810;2022-10-19T03:30:18;100028.41;;;12.13;93.12
75594;BME280;64176;49.156;7.810;2022-10-19T03:33:02;100023.34;;;12.24;92.41
75594;BME280;64176;49.156;7.810;2022-10-19T03:35:46;100017.88;;;11.99;93.22
75594;BME280;64176;49.156;7.810;2022-10-19T03:38:29;100023.53;;;11.70;94.24
75594;BME280;64176;49.156;7.810;2022-10-19T03:41:13;100023.81;;;11.89;94.55
75594;BME280;64176;49.156;7.810;2022-10-19T03:43:57;100029.16;;;12.06;94.03
75594;BME280;64176;49.156;7.810;2022-10-19T03:46:41;100029.16;;;12.04;93.95
75594;BME280;64176;49.156;7.810;2022-10-19T03:49:25;100021.16;;;11.86;93.64
75594;BME280;64176;49.156;7.810;2022-10-19T03:52:10;100029.66;;;11.76;93.68
75594;BME280;64176;49.156;7.810;2022-10-19T03:54:54;100031.31;;;11.74;93.75
75594;BME280;64176;49.156;7.810;2022-10-19T03:57:38;100035.88;;;11.89;92.71
75594;BME280;64176;49.156;7.810;2022-10-19T04:00:22;100028.16;;;11.93;92.28
75594;BME280;64176;49.156;7.810;2022-10-19T04:03:05;100027.53;;;12.11;91.61
75594;BME280;64176;49.156;7.810;2022-10-19T04:05:50;100032.63;;;12.03;91.77
75594;BME280;64176;49.156;7.810;2022-10-19T04:08:34;100031.78;;;12.08;91.39
75594;BME280;64176;49.156;7.810;2022-10-19T04:11:21;100032.69;;;12.11;91.09
75594;BME280;64176;49.156;7.810;2022-10-19T04:14:09;100029.06;;;11.97;91.50
75594;BME280;64176;49.156;7.810;2022-10-19T04:16:53;100022.25;;;12.03;91.55
75594;BME280;64176;49.156;7.810;2022-10-19T04:19:40;100023.09;;;12.01;91.69
75594;BME280;64176;49.156;7.810;2022-10-19T04:22:24;100029.28;;;12.14;91.46
75594;BME280;64176;49.156;7.810;2022-10-19T04:25:08;100032.69;;;12.10;91.35
75594;BME280;64176;49.156;7.810;2022-10-19T04:27:53;100025.75;;;12.09;91.65
75594;BME280;64176;49.156;7.810;2022-10-19T04:30:37;100028.50;;;12.21;91.24
75594;BME280;64176;49.156;7.810;2022-10-19T04:33:21;100023.34;;;12.24;90.78
75594;BME280;64176;49.156;7.810;2022-10-19T04:36:09;100025.78;;;12.12;91.51
75594;BME280;64176;49.156;7.810;2022-10-19T04:38:53;100026.78;;;12.21;91.25
75594;BME280;64176;49.156;7.810;2022-10-19T04:41:37;100022.47;;;12.23;91.33
75594;BME280;64176;49.156;7.810;2022-10-19T04:44:21;100013.84;;;12.27;91.19
75594;BME280;64176;49.156;7.810;2022-10-19T04:47:05;100018.38;;;12.44;90.72
75594;BME280;64176;49.156;7.810;2022-10-19T04:49:49;100019.91;;;12.26;91.23
75594;BME280;64176;49.156;7.810;2022-10-19T04:52:32;100022.63;;;12.40;91.27
75594;BME280;64176;49.156;7.810;2022-10-19T04:55:17;100010.63;;;12.48;91.83
75594;BME280;64176;49.156;7.810;2022-10-19T04:58:01;100015.84;;;12.53;91.35
75594;BME280;64176;49.156;7.810;2022-10-19T05:00:45;100016.72;;;12.52;91.80
75594;BME280;64176;49.156;7.810;2022-10-19T05:03:32;100022.84;;;12.61;91.78
75594;BME280;64176;49.156;7.810;2022-10-19T05:06:16;100017.66;;;12.58;91.31
75594;BME280;64176;49.156;7.810;2022-10-19T05:09:00;100008.19;;;12.65;91.75
75594;BME280;64176;49.156;7.810;2022-10-19T05:11:46;100029.41;;;12.27;92.49
75594;BME280;64176;49.156;7.810;2022-10-19T05:14:32;100006.25;;;12.43;92.50
75594;BME280;64176;49.156;7.810;2022-10-19T05:17:19;100009.16;;;12.74;92.55
75594;BME280;64176;49.156;7.810;2022-10-19T05:20:04;100001.53;;;12.94;92.51
75594;BME280;64176;49.156;7.810;2022-10-19T05:22:48;100003.25;;;12.94;91.92
75594;BME280;64176;49.156;7.810;2022-10-19T05:25:32;100009.38;;;13.00;92.79
75594;BME280;64176;49.156;7.810;2022-10-19T05:28:16;100009.44;;;13.09;92.43
75594;BME280;64176;49.156;7.810;2022-10-19T05:31:24;100007.66;;;13.02;91.84
75594;BME280;64176;49.156;7.810;2022-10-19T05:34:08;100004.22;;;13.08;92.19
75594;BME280;64176;49.156;7.810;2022-10-19T05:36:54;100003.53;;;13.29;92.53
75594;BME280;64176;49.156;7.810;2022-10-19T05:39:37;100003.63;;;13.41;93.03
75594;BME280;64176;49.156;7.810;2022-10-19T05:42:21;99999.34;;;13.52;92.57
75594;BME280;64176;49.156;7.810;2022-10-19T05:45:08;100005.44;;;13.54;92.70
75594;BME280;64176;49.156;7.810;2022-10-19T05:47:54;99995.94;;;13.61;92.39
75594;BME280;64176;49.156;7.810;2022-10-19T05:50:38;100003.75;;;13.65;92.13
75594;BME280;64176;49.156;7.810;2022-10-19T05:53:22;100002.88;;;13.63;92.16
75594;BME280;64176;49.156;7.810;2022-10-19T05:56:08;100001.16;;;13.64;92.13
75594;BME280;64176;49.156;7.810;2022-10-19T05:58:59;99997.69;;;13.66;92.06
75594;BME280;64176;49.156;7.810;2022-10-19T06:01:45;99994.22;;;13.66;92.21
75594;BME280;64176;49.156;7.810;2022-10-19T06:04:31;100002.91;;;13.74;92.07
75594;BME280;64176;49.156;7.810;2022-10-19T06:07:16;100002.91;;;13.72;92.09
75594;BME280;64176;49.156;7.810;2022-10-19T06:10:00;100001.22;;;13.79;91.85
75594;BME280;64176;49.156;7.810;2022-10-19T06:12:44;99999.50;;;13.84;91.69
75594;BME280;64176;49.156;7.810;2022-10-19T06:15:28;100002.13;;;13.89;91.75
75594;BME280;64176;49.156;7.810;2022-10-19T06:18:11;99998.69;;;13.90;91.59
75594;BME280;64176;49.156;7.810;2022-10-19T06:21:03;99992.59;;;13.89;91.79
75594;BME280;64176;49.156;7.810;2022-10-19T06:23:51;100008.19;;;13.94;91.31
75594;BME280;64176;49.156;7.810;2022-10-19T06:26:36;100007.34;;;13.98;91.29
75594;BME280;64176;49.156;7.810;2022-10-19T06:29:20;100007.38;;;14.07;91.14
75594;BME280;64176;49.156;7.810;2022-10-19T06:32:06;100006.53;;;14.06;91.37
75594;BME280;64176;49.156;7.810;2022-10-19T06:34:50;100010.00;;;14.08;91.34
75594;BME280;64176;49.156;7.810;2022-10-19T06:37:34;100012.63;;;14.11;91.48
75594;BME280;64176;49.156;7.810;2022-10-19T06:40:18;100005.66;;;14.15;90.87
75594;BME280;64176;49.156;7.810;2022-10-19T06:43:05;100001.34;;;14.18;90.15
75594;BME280;64176;49.156;7.810;2022-10-19T06:45:49;100000.47;;;14.16;90.36
75594;BME280;64176;49.156;7.810;2022-10-19T06:48:33;100006.53;;;14.11;90.24
75594;BME280;64176;49.156;7.810;2022-10-19T06:51:20;100004.81;;;14.13;89.34
75594;BME280;64176;49.156;7.810;2022-10-19T06:54:04;100004.81;;;14.11;89.55
75594;BME280;64176;49.156;7.810;2022-10-19T06:56:49;100017.81;;;14.11;89.45
75594;BME280;64176;49.156;7.810;2022-10-19T06:59:33;100013.47;;;14.12;89.59
75594;BME280;64176;49.156;7.810;2022-10-19T07:02:17;100016.06;;;14.09;89.75
75594;BME280;64176;49.156;7.810;2022-10-19T07:05:00;100008.25;;;14.07;89.64
75594;BME280;64176;49.156;7.810;2022-10-19T07:07:44;100001.34;;;14.12;89.30
75594;BME280;64176;49.156;7.810;2022-10-19T07:10:28;99996.13;;;14.14;89.07
75594;BME280;64176;49.156;7.810;2022-10-19T07:13:12;99994.41;;;14.17;88.78
75594;BME280;64176;49.156;7.810;2022-10-19T07:15:58;100004.00;;;14.23;88.97
75594;BME280;64176;49.156;7.810;2022-10-19T07:18:43;100000.53;;;14.32;88.78
75594;BME280;64176;49.156;7.810;2022-10-19T07:21:29;100004.88;;;14.36;88.69
75594;BME280;64176;49.156;7.810;2022-10-19T07:24:16;100004.88;;;14.33;88.60
75594;BME280;64176;49.156;7.810;2022-10-19T07:27:00;100004.84;;;14.30;88.63
75594;BME280;64176;49.156;7.810;2022-10-19T07:29:44;100005.72;;;14.29;88.80
75594;BME280;64176;49.156;7.810;2022-10-19T07:32:28;100002.25;;;14.24;88.85
75594;BME280;64176;49.156;7.810;2022-10-19T07:35:13;100012.66;;;14.24;89.41
75594;BME280;64176;49.156;7.810;2022-10-19T07:37:57;100013.50;;;14.21;89.25
75594;BME280;64176;49.156;7.810;2022-10-19T07:40:41;100015.19;;;14.14;89.33
75594;BME280;64176;49.156;7.810;2022-10-19T07:43:25;100013.47;;;14.15;89.14
75594;BME280;64176;49.156;7.810;2022-10-19T07:46:12;100016.06;;;14.15;89.46
75594;BME280;64176;49.156;7.810;2022-10-19T07:48:57;100015.22;;;14.13;89.37
75594;BME280;64176;49.156;7.810;2022-10-19T07:51:41;100018.72;;;14.23;89.12
75594;BME280;64176;49.156;7.810;2022-10-19T07:54:28;100025.63;;;14.13;89.09
75594;BME280;64176;49.156;7.810;2022-10-19T07:57:14;100022.16;;;14.17;89.25
75594;BME280;64176;49.156;7.810;2022-10-19T07:59:58;100029.09;;;14.21;89.14
75594;BME280;64176;49.156;7.810;2022-10-19T08:02:42;100014.31;;;14.00;89.40
75594;BME280;64176;49.156;7.810;2022-10-19T08:05:27;100020.38;;;14.02;89.36
75594;BME280;64176;49.156;7.810;2022-10-19T08:08:11;100024.72;;;14.09;89.63
75594;BME280;64176;49.156;7.810;2022-10-19T08:11:04;100021.28;;;14.10;89.46
75594;BME280;64176;49.156;7.810;2022-10-19T08:13:49;100017.81;;;14.16;89.24
75594;BME280;64176;49.156;7.810;2022-10-19T08:16:34;100023.88;;;14.16;89.40
75594;BME280;64176;49.156;7.810;2022-10-19T08:19:24;100023.88;;;14.16;89.10
75594;BME280;64176;49.156;7.810;2022-10-19T08:22:08;100024.78;;;14.25;88.86
75594;BME280;64176;49.156;7.810;2022-10-19T08:24:52;100027.41;;;14.31;88.81
75594;BME280;64176;49.156;7.810;2022-10-19T08:27:36;100023.03;;;14.28;88.77
75594;BME280;64176;49.156;7.810;2022-10-19T08:30:20;100016.13;;;14.24;88.26
75594;BME280;64176;49.156;7.810;2022-10-19T08:33:04;100019.63;;;14.35;88.47
75594;BME280;64176;49.156;7.810;2022-10-19T08:35:51;100018.72;;;14.30;88.73
75594;BME280;64176;49.156;7.810;2022-10-19T08:38:37;100015.25;;;14.31;88.34
75594;BME280;64176;49.156;7.810;2022-10-19T08:50:35;100002.28;;;14.36;88.19
75594;BME280;64176;49.156;7.810;2022-10-19T08:53:21;100010.94;;;14.33;88.10
75594;BME280;64176;49.156;7.810;2022-10-19T08:59:42;100015.25;;;14.24;88.10
75594;BME280;64176;49.156;7.810;2022-10-19T09:08:21;100007.44;;;14.22;88.38
75594;BME280;64176;49.156;7.810;2022-10-19T09:11:06;100001.38;;;14.26;87.93
75594;BME280;64176;49.156;7.810;2022-10-19T09:17:11;100002.25;;;14.28;87.59
75594;BME280;64176;49.156;7.810;2022-10-19T09:20:00;100005.75;;;14.35;87.87
75594;BME280;64176;49.156;7.810;2022-10-19T09:23:01;100010.91;;;14.29;87.15
75594;BME280;64176;49.156;7.810;2022-10-19T09:25:47;100000.56;;;14.39;87.30
75594;BME280;64176;49.156;7.810;2022-10-19T09:31:31;99996.22;;;14.34;87.60
75594;BME280;64176;49.156;7.810;2022-10-19T09:34:19;100001.44;;;14.43;87.07
75594;BME280;64176;49.156;7.810;2022-10-19T09:37:05;99995.38;;;14.48;87.00
75594;BME280;64176;49.156;7.810;2022-10-19T09:39:49;99996.28;;;14.55;86.86
75594;BME280;64176;49.156;7.810;2022-10-19T09:42:33;99983.28;;;14.56;86.41
75594;BME280;64176;49.156;7.810;2022-10-19T09:45:25;99983.25;;;14.70;86.48
75594;BME280;64176;49.156;7.810;2022-10-19T09:48:38;99985.03;;;14.79;86.32
75594;BME280;64176;49.156;7.810;2022-10-19T09:51:37;99981.53;;;14.63;86.19
75594;BME280;64176;49.156;7.810;2022-10-19T09:54:32;99986.72;;;14.58;86.11
75594;BME280;64176;49.156;7.810;2022-10-19T09:57:21;99979.78;;;14.61;86.77
75594;BME280;64176;49.156;7.810;2022-10-19T10:00:08;99970.25;;;14.75;86.04
75594;BME280;64176;49.156;7.810;2022-10-19T10:02:59;99977.19;;;14.51;86.39
75594;BME280;64176;49.156;7.810;2022-10-19T10:05:46;99983.25;;;14.53;86.16
75594;BME280;64176;49.156;7.810;2022-10-19T10:08:44;99985.00;;;14.47;86.52
75594;BME280;64176;49.156;7.810;2022-10-19T10:11:37;99973.69;;;14.48;86.06
75594;BME280;64176;49.156;7.810;2022-10-19T10:14:28;99989.34;;;14.46;86.01
75594;BME280;64176;49.156;7.810;2022-10-19T10:17:18;99983.25;;;14.41;86.36
75594;BME280;64176;49.156;7.810;2022-10-19T10:20:15;99975.44;;;14.41;86.29
75594;BME280;64176;49.156;7.810;2022-10-19T10:23:05;99985.84;;;14.40;86.83
75594;BME280;64176;49.156;7.810;2022-10-19T10:25:49;99984.94;;;14.38;87.06
75594;BME280;64176;49.156;7.810;2022-10-19T10:28:45;99982.38;;;14.41;86.79
75594;BME280;64176;49.156;7.810;2022-10-19T10:31:33;99983.25;;;14.41;87.19
75594;BME280;64176;49.156;7.810;2022-10-19T10:40:27;99981.50;;;14.48;86.50
75594;BME280;64176;49.156;7.810;2022-10-19T10:43:15;99979.78;;;14.50;86.37
75594;BME280;64176;49.156;7.810;2022-10-19T10:46:13;99972.78;;;14.38;86.77
75594;BME280;64176;49.156;7.810;2022-10-19T10:49:03;99972.88;;;14.56;86.28
75594;BME280;64176;49.156;7.810;2022-10-19T10:51:54;99964.13;;;14.30;86.58
75594;BME280;64176;49.156;7.810;2022-10-19T10:54:39;99969.38;;;14.50;85.82
75594;BME280;64176;49.156;7.810;2022-10-19T10:57:27;99961.53;;;14.38;86.44
75594;BME280;64176;49.156;7.810;2022-10-19T11:00:18;99967.66;;;14.56;86.14
75594;BME280;64176;49.156;7.810;2022-10-19T11:03:20;99964.19;;;14.64;86.06
75594;BME280;64176;49.156;7.810;2022-10-19T11:06:07;99963.31;;;14.52;85.88
75594;BME280;64176;49.156;7.810;2022-10-19T11:09:02;99957.22;;;14.47;85.99
75594;BME280;64176;49.156;7.810;2022-10-19T11:11:49;99952.91;;;14.54;85.67
75594;BME280;64176;49.156;7.810;2022-10-19T11:14:47;99953.78;;;14.65;85.85
75594;BME280;64176;49.156;7.810;2022-10-19T11:17:35;99939.91;;;14.54;85.76
75594;BME280;64176;49.156;7.810;2022-10-19T11:20:22;99949.38;;;14.31;85.71
75594;BME280;64176;49.156;7.810;2022-10-19T11:23:15;99945.97;;;14.44;85.91
75594;BME280;64176;49.156;7.810;2022-10-19T11:29:06;99943.31;;;14.29;86.11
75594;BME280;64176;49.156;7.810;2022-10-19T11:31:54;99950.28;;;14.34;85.90
75594;BME280;64176;49.156;7.810;2022-10-19T11:41:34;99940.75;;;14.39;86.01
75594;BME280;64176;49.156;7.810;2022-10-19T11:44:41;99932.06;;;14.24;86.47
75594;BME280;64176;49.156;7.810;2022-10-19T12:00:15;99918.19;;;14.21;86.36
75594;BME280;64176;49.156;7.810;2022-10-19T12:12:22;99899.09;;;14.26;86.37
75594;BME280;64176;49.156;7.810;2022-10-19T12:15:14;99896.50;;;14.30;86.25
75594;BME280;64176;49.156;7.810;2022-10-19T12:18:09;99875.69;;;14.26;86.14
75594;BME280;64176;49.156;7.810;2022-10-19T12:20:58;99884.38;;;14.32;86.22
75594;BME280;64176;49.156;7.810;2022-10-19T12:23:45;99876.56;;;14.37;85.56
75594;BME280;64176;49.156;7.810;2022-10-19T12:26:33;99863.63;;;14.46;85.26
75594;BME280;64176;49.156;7.810;2022-10-19T12:29:22;99853.22;;;14.44;84.72
75594;BME280;64176;49.156;7.810;2022-10-19T12:32:12;99855.81;;;14.52;84.49
75594;BME280;64176;49.156;7.810;2022-10-19T12:51:01;99847.97;;;14.60;84.48
75594;BME280;64176;49.156;7.810;2022-10-19T12:53:49;99834.13;;;14.54;84.40
75594;BME280;64176;49.156;7.810;2022-10-19T12:56:45;99823.69;;;14.61;84.74
75594;BME280;64176;49.156;7.810;2022-10-19T12:59:35;99821.97;;;14.69;84.07
75594;BME280;64176;49.156;7.810;2022-10-19T13:02:29;99808.13;;;14.48;82.87
75594;BME280;64176;49.156;7.810;2022-10-19T13:05:21;99796.78;;;14.71;82.47
75594;BME280;64176;49.156;7.810;2022-10-19T13:08:06;99811.50;;;14.88;81.24
75594;BME280;64176;49.156;7.810;2022-10-19T13:11:11;99792.47;;;14.76;80.81
75594;BME280;64176;49.156;7.810;2022-10-19T13:16:58;99787.22;;;14.80;80.46
75594;BME280;64176;49.156;7.810;2022-10-19T13:19:47;99787.22;;;14.82;80.14
75594;BME280;64176;49.156;7.810;2022-10-19T13:22:31;99783.75;;;14.86;80.10
75594;BME280;64176;49.156;7.810;2022-10-19T13:31:22;99781.13;;;14.93;79.91
75594;BME280;64176;49.156;7.810;2022-10-19T13:34:14;99785.44;;;14.93;79.38
75594;BME280;64176;49.156;7.810;2022-10-19T13:36:59;99769.88;;;14.90;79.55
75594;BME280;64176;49.156;7.810;2022-10-19T13:39:46;99765.53;;;14.83;79.21
75594;BME280;64176;49.156;7.810;2022-10-19T13:42:30;99755.09;;;14.95;79.11
75594;BME280;64176;49.156;7.810;2022-10-19T13:45:21;99755.13;;;14.89;78.99
75594;BME280;64176;49.156;7.810;2022-10-19T13:48:18;99753.34;;;14.94;79.00
75594;BME280;64176;49.156;7.810;2022-10-19T14:06:41;99741.09;;;15.17;78.89
75594;BME280;64176;49.156;7.810;2022-10-19T14:12:34;99741.03;;;15.25;78.85
75594;BME280;64176;49.156;7.810;2022-10-19T14:15:31;99742.81;;;15.21;78.99
75594;BME280;64176;49.156;7.810;2022-10-19T14:18:25;99745.38;;;15.32;78.97
75594;BME280;64176;49.156;7.810;2022-10-19T14:21:09;99736.75;;;15.22;79.39
75594;BME280;64176;49.156;7.810;2022-10-19T14:23:53;99747.09;;;15.32;78.98
75594;BME280;64176;49.156;7.810;2022-10-19T14:26:37;99746.19;;;15.36;78.84
75594;BME280;64176;49.156;7.810;2022-10-19T14:29:21;99739.22;;;15.39;78.74
75594;BME280;64176;49.156;7.810;2022-10-19T14:32:08;99733.16;;;15.39;79.07
75594;BME280;64176;49.156;7.810;2022-10-19T14:34:59;99732.41;;;15.20;79.34
75594;BME280;64176;49.156;7.810;2022-10-19T14:37:44;99730.69;;;15.19;79.34
75594;BME280;64176;49.156;7.810;2022-10-19T14:40:37;99725.47;;;15.19;79.50
75594;BME280;64176;49.156;7.810;2022-10-19T14:43:32;99722.84;;;15.20;79.40
75594;BME280;64176;49.156;7.810;2022-10-19T14:46:19;99716.78;;;15.20;79.89
75594;BME280;64176;49.156;7.810;2022-10-19T14:49:04;99706.34;;;15.23;79.74
75594;BME280;64176;49.156;7.810;2022-10-19T14:51:55;99695.88;;;15.30;79.45
75594;BME280;64176;49.156;7.810;2022-10-19T14:54:45;99692.47;;;15.24;79.71
75594;BME280;64176;49.156;7.810;2022-10-19T14:57:34;99685.47;;;15.29;79.83
75594;BME280;64176;49.156;7.810;2022-10-19T15:00:21;99689.00;;;15.23;79.12
75594;BME280;64176;49.156;7.810;2022-10-19T15:03:08;99685.50;;;15.24;79.30
75594;BME280;64176;49.156;7.810;2022-10-19T15:06:04;99675.06;;;15.29;78.92
75594;BME280;64176;49.156;7.810;2022-10-19T15:09:03;99675.06;;;15.27;78.81
75594;BME280;64176;49.156;7.810;2022-10-19T15:11:48;99679.41;;;15.30;78.84
75594;BME280;64176;49.156;7.810;2022-10-19T15:14:33;99675.06;;;15.24;78.95
75594;BME280;64176;49.156;7.810;2022-10-19T15:17:28;99662.09;;;15.23;79.81
75594;BME280;64176;49.156;7.810;2022-10-19T15:20:42;99658.63;;;15.24;79.34
75594;BME280;64176;49.156;7.810;2022-10-19T15:23:40;99655.16;;;15.17;79.30
75594;BME280;64176;49.156;7.810;2022-10-19T15:29:19;99662.09;;;15.20;79.27
75594;BME280;64176;49.156;7.810;2022-10-19T15:32:22;99667.38;;;15.12;79.63
75594;BME280;64176;49.156;7.810;2022-10-19T15:41:00;99657.84;;;15.07;80.17
75594;BME280;64176;49.156;7.810;2022-10-19T15:43:53;99655.25;;;15.07;80.38
75594;BME280;64176;49.156;7.810;2022-10-19T15:49:59;99650.16;;;14.87;81.23
75594;BME280;64176;49.156;7.810;2022-10-19T15:52:44;99645.84;;;14.81;81.40
75594;BME280;64176;49.156;7.810;2022-10-19T15:55:28;99644.16;;;14.73;81.25
75594;BME280;64176;49.156;7.810;2022-10-19T15:58:14;99635.50;;;14.71;81.56
75594;BME280;64176;49.156;7.810;2022-10-19T16:01:01;99632.06;;;14.67;81.74
75594;BME280;64176;49.156;7.810;2022-10-19T16:03:45;99639.88;;;14.66;81.81
75594;BME280;64176;49.156;7.810;2022-10-19T16:06:31;99640.75;;;14.58;81.94
75594;BME280;64176;49.156;7.810;2022-10-19T16:09:19;99646.00;;;14.54;82.44
75594;BME280;64176;49.156;7.810;2022-10-19T16:12:04;99639.06;;;14.56;82.25
75594;BME280;64176;49.156;7.810;2022-10-19T16:14:48;99646.00;;;14.51;82.28
75594;BME280;64176;49.156;7.810;2022-10-19T16:17:32;99652.94;;;14.55;82.26
75594;BME280;64176;49.156;7.810;2022-10-19T16:20:16;99647.72;;;14.55;82.52
75594;BME280;64176;49.156;7.810;2022-10-19T16:23:01;99637.31;;;14.56;82.51
75594;BME280;64176;49.156;7.810;2022-10-19T16:25:45;99645.13;;;14.49;82.87
75594;BME280;64176;49.156;7.810;2022-10-19T16:28:29;99647.78;;;14.46;83.18
75594;BME280;64176;49.156;7.810;2022-10-19T16:31:14;99636.50;;;14.39;83.18
75594;BME280;64176;49.156;7.810;2022-10-19T16:34:00;99634.81;;;14.25;83.83
75594;BME280;64176;49.156;7.810;2022-10-19T16:36:45;99636.50;;;14.30;83.56
75594;BME280;64176;49.156;7.810;2022-10-19T16:39:29;99628.72;;;14.33;83.34
75594;BME280;64176;49.156;7.810;2022-10-19T16:42:12;99631.28;;;14.38;82.86
75594;BME280;64176;49.156;7.810;2022-10-19T16:44:56;99629.53;;;14.37;82.83
75594;BME280;64176;49.156;7.810;2022-10-19T16:47:40;99627.84;;;14.28;83.26
75594;BME280;64176;49.156;7.810;2022-10-19T16:50:24;99626.13;;;14.29;83.23
75594;BME280;64176;49.156;7.810;2022-10-19T16:53:09;99615.75;;;14.15;83.21
75594;BME280;64176;49.156;7.810;2022-10-19T16:56:09;99632.22;;;14.18;83.72
75594;BME280;64176;49.156;7.810;2022-10-19T16:59:04;99633.94;;;14.16;83.48